createdAt,value
2019-05-18T00:01:38.666Z,26.82
2019-05-18T00:04:07.869Z,25.90
2019-05-18T00:06:37.660Z,27.07
2019-05-18T00:09:08.012Z,24.77
2019-05-18T00:11:37.111Z,28.32
2019-05-18T00:14:06.303Z,27.48
2019-05-18T00:16:35.503Z,27.42
2019-05-18T00:19:04.813Z,26.40
2019-05-18T00:21:33.639Z,29.50
2019-05-18T00:24:02.811Z,28.12
2019-05-18T00:26:32.004Z,26.97
2019-05-18T00:29:00.856Z,27.32
2019-05-18T00:31:32.964Z,28.27
2019-05-18T00:34:02.178Z,28.62
2019-05-18T00:36:31.352Z,26.70
2019-05-18T00:39:00.568Z,27.80
2019-05-18T00:41:29.749Z,27.42
2019-05-18T00:43:58.953Z,27.60
2019-05-18T00:46:28.283Z,26.45
2019-05-18T00:48:57.075Z,26.97
2019-05-18T00:51:26.340Z,29.05
2019-05-18T00:53:56.079Z,27.37
2019-05-18T00:56:25.369Z,27.22
2019-05-18T00:58:54.591Z,28.07
2019-05-18T01:01:23.765Z,27.60
2019-05-18T01:03:53.080Z,26.93
2019-05-18T01:06:22.827Z,29.25
2019-05-18T01:08:51.963Z,28.95
2019-05-18T01:11:21.076Z,28.55
2019-05-18T01:13:49.907Z,28.07
2019-05-18T01:16:19.068Z,29.05
2019-05-18T01:18:48.255Z,27.75
2019-05-18T01:21:17.063Z,29.87
2019-05-18T01:23:46.240Z,29.98
2019-05-18T01:26:15.457Z,30.57
2019-05-18T01:28:44.654Z,31.60
2019-05-18T01:31:13.839Z,31.95
2019-05-18T01:33:43.047Z,31.42
2019-05-18T01:36:13.675Z,33.35
2019-05-18T01:38:42.887Z,31.55
2019-05-18T01:41:11.980Z,30.55
2019-05-18T01:43:41.290Z,30.10
2019-05-18T01:46:11.911Z,29.70
2019-05-18T01:48:41.016Z,31.02
2019-05-18T01:51:10.216Z,29.27
2019-05-18T01:53:39.420Z,27.85
2019-05-18T01:56:08.603Z,28.83
2019-05-18T01:58:37.696Z,27.05
2019-05-18T02:01:07.100Z,28.17
2019-05-18T02:03:36.317Z,28.10
2019-05-18T02:06:05.212Z,28.07
2019-05-18T02:08:34.408Z,28.95
2019-05-18T02:11:03.602Z,28.55
2019-05-18T02:13:32.798Z,28.47
2019-05-18T02:16:01.796Z,30.32
2019-05-18T02:18:31.091Z,30.27
2019-05-18T02:21:00.232Z,31.60
2019-05-18T02:23:29.398Z,30.27
2019-05-18T02:25:58.668Z,31.20
2019-05-18T02:28:27.893Z,33.28
2019-05-18T02:30:57.014Z,33.42
2019-05-18T02:33:26.221Z,34.00
2019-05-18T02:35:55.410Z,33.88
2019-05-18T02:38:24.592Z,33.45
2019-05-18T02:40:53.813Z,32.60
2019-05-18T02:43:22.885Z,34.73
2019-05-18T02:45:52.100Z,34.85
2019-05-18T02:48:21.188Z,34.35
2019-05-18T02:50:50.485Z,33.05
2019-05-18T02:53:19.685Z,32.35
2019-05-18T02:55:48.884Z,33.45
2019-05-18T02:58:18.086Z,34.48
2019-05-18T03:00:47.512Z,34.50
2019-05-18T03:03:16.727Z,33.13
2019-05-18T03:05:45.947Z,32.88
2019-05-18T03:08:15.819Z,34.95
2019-05-18T03:10:45.228Z,34.43
2019-05-18T03:13:16.017Z,35.08
2019-05-18T03:15:45.243Z,34.67
2019-05-18T03:18:13.994Z,34.18
2019-05-18T03:20:43.160Z,35.83
2019-05-18T03:23:14.368Z,34.50
2019-05-18T03:25:43.997Z,33.60
2019-05-18T03:28:12.920Z,33.28
2019-05-18T03:30:41.694Z,35.03
2019-05-18T03:33:11.090Z,34.05
2019-05-18T03:35:40.805Z,35.20
2019-05-18T03:38:09.995Z,32.53
2019-05-18T03:40:39.201Z,33.00
2019-05-18T03:43:08.287Z,33.35
2019-05-18T03:45:37.489Z,34.55
2019-05-18T03:48:06.683Z,34.03
2019-05-18T03:50:36.508Z,32.58
2019-05-18T03:53:05.349Z,33.33
2019-05-18T03:55:34.481Z,32.67
2019-05-18T03:58:03.687Z,34.53
2019-05-18T04:00:32.893Z,34.73
2019-05-18T04:03:02.092Z,34.53
2019-05-18T04:05:31.549Z,36.08
2019-05-18T04:08:02.978Z,36.70
2019-05-18T04:10:32.248Z,36.33
2019-05-18T04:13:02.093Z,36.63
2019-05-18T04:15:31.266Z,33.95
2019-05-18T04:18:00.565Z,34.67
2019-05-18T04:20:29.759Z,36.65
2019-05-18T04:22:58.956Z,34.75
2019-05-18T04:25:28.106Z,34.08
2019-05-18T04:27:57.358Z,34.50
2019-05-18T04:30:26.494Z,35.17
2019-05-18T04:32:55.758Z,36.23
2019-05-18T04:35:24.969Z,35.65
2019-05-18T04:37:54.169Z,35.25
2019-05-18T04:40:23.035Z,35.43
2019-05-18T04:42:52.141Z,37.65
2019-05-18T04:45:22.066Z,34.53
2019-05-18T04:47:51.159Z,34.15
2019-05-18T04:50:20.504Z,32.33
2019-05-18T04:52:49.777Z,31.82
2019-05-18T04:55:18.884Z,32.45
2019-05-18T04:57:49.502Z,32.28
2019-05-18T05:00:18.804Z,33.38
2019-05-18T05:02:48.002Z,31.02
2019-05-18T05:05:17.770Z,30.92
2019-05-18T05:07:46.916Z,30.55
2019-05-18T05:10:15.675Z,31.25
2019-05-18T05:12:44.792Z,31.12
2019-05-18T05:15:14.121Z,31.07
2019-05-18T05:17:45.670Z,32.60
2019-05-18T05:20:19.874Z,30.62
2019-05-18T05:22:45.605Z,31.37
2019-05-18T05:25:14.785Z,31.52
2019-05-18T05:27:43.885Z,30.27
2019-05-18T05:30:15.074Z,30.77
2019-05-18T05:32:45.671Z,29.95
2019-05-18T05:35:16.405Z,30.55
2019-05-18T05:37:45.701Z,30.45
2019-05-18T05:40:15.011Z,30.02
2019-05-18T05:42:44.303Z,29.48
2019-05-18T05:45:13.918Z,30.88
2019-05-18T05:47:43.011Z,31.82
2019-05-18T05:50:12.433Z,29.95
2019-05-18T05:52:41.790Z,30.70
2019-05-18T05:55:11.432Z,30.25
2019-05-18T05:57:40.744Z,31.52
2019-05-18T06:00:12.681Z,30.82
2019-05-18T06:02:41.808Z,30.97
2019-05-18T06:05:10.929Z,31.30
2019-05-18T06:07:43.585Z,32.48
2019-05-18T06:10:13.072Z,31.27
2019-05-18T06:12:42.283Z,32.70
2019-05-18T06:15:11.337Z,36.55
2019-05-18T06:17:40.467Z,32.67
2019-05-18T06:20:10.082Z,33.92
2019-05-18T06:22:42.248Z,33.20
2019-05-18T06:25:11.433Z,33.53
2019-05-18T06:27:40.555Z,35.40
2019-05-18T06:30:10.483Z,36.40
2019-05-18T06:32:39.763Z,34.48
2019-05-18T06:35:08.589Z,36.17
2019-05-18T06:37:37.649Z,36.17
2019-05-18T06:40:10.134Z,35.23
2019-05-18T06:42:39.227Z,37.20
2019-05-18T06:45:08.917Z,35.35
2019-05-18T06:47:38.160Z,33.95
2019-05-18T06:50:11.858Z,34.45
2019-05-18T06:52:39.449Z,35.40
2019-05-18T06:55:10.997Z,35.48
2019-05-18T06:57:40.662Z,33.25
2019-05-18T07:00:12.848Z,33.23
2019-05-18T07:02:42.818Z,35.38
2019-05-18T07:05:12.171Z,35.73
2019-05-18T07:07:41.278Z,35.52
2019-05-18T07:10:10.418Z,43.02
2019-05-18T07:12:39.656Z,35.25
2019-05-18T07:15:09.540Z,36.08
2019-05-18T07:17:42.561Z,36.53
2019-05-18T07:20:17.010Z,35.80
2019-05-18T07:22:50.319Z,35.30
2019-05-18T07:25:22.514Z,36.45
2019-05-18T07:27:52.742Z,34.65
2019-05-18T07:30:23.004Z,36.50
2019-05-18T07:32:52.883Z,37.42
2019-05-18T07:35:24.081Z,36.70
2019-05-18T07:37:54.440Z,35.88
2019-05-18T07:40:25.337Z,38.33
2019-05-18T07:42:55.103Z,39.35
2019-05-18T07:45:25.853Z,40.20
2019-05-18T07:47:57.500Z,39.03
2019-05-18T07:50:29.657Z,36.90
2019-05-18T07:53:02.774Z,36.77
2019-05-18T07:55:32.103Z,36.68
2019-05-18T07:58:02.340Z,37.67
2019-05-18T08:00:35.331Z,40.80
2019-05-18T08:03:04.105Z,40.63
2019-05-18T08:05:33.304Z,40.50
2019-05-18T08:08:02.477Z,42.55
2019-05-18T08:10:38.968Z,42.78
2019-05-18T08:13:08.211Z,42.03
2019-05-18T08:15:37.888Z,43.80
2019-05-18T08:18:08.941Z,44.25
2019-05-18T08:20:38.124Z,42.80
2019-05-18T08:23:07.221Z,45.28
2019-05-18T08:25:36.334Z,43.28
2019-05-18T08:28:05.622Z,44.08
2019-05-18T08:30:34.724Z,44.42
2019-05-18T08:33:03.911Z,44.03
2019-05-18T08:35:33.012Z,44.00
2019-05-18T08:38:04.195Z,43.87
2019-05-18T08:40:33.056Z,41.53
2019-05-18T08:43:02.254Z,43.87
2019-05-18T08:45:31.088Z,42.33
2019-05-18T08:48:00.241Z,42.08
2019-05-18T08:50:29.443Z,43.17
2019-05-18T08:52:58.194Z,42.80
2019-05-18T08:55:27.441Z,41.08
2019-05-18T08:57:56.568Z,41.13
2019-05-18T09:00:26.414Z,41.18
2019-05-18T09:02:56.433Z,40.25
2019-05-18T09:05:28.332Z,40.17
2019-05-18T09:07:57.528Z,37.70
2019-05-18T09:10:26.729Z,38.35
2019-05-18T09:12:55.917Z,39.50
2019-05-18T09:15:24.689Z,39.53
2019-05-18T09:17:53.810Z,38.98
2019-05-18T09:20:23.022Z,39.08
2019-05-18T09:22:52.633Z,39.00
2019-05-18T09:25:21.836Z,38.78
2019-05-18T09:27:50.921Z,39.58
2019-05-18T09:30:20.325Z,38.88
2019-05-18T09:32:49.082Z,37.50
2019-05-18T09:35:18.517Z,37.42
2019-05-18T09:37:47.815Z,37.25
2019-05-18T09:40:17.426Z,39.80
2019-05-18T09:42:46.632Z,35.60
2019-05-18T09:45:17.459Z,37.08
2019-05-18T09:47:46.768Z,39.48
2019-05-18T09:50:16.205Z,38.28
2019-05-18T09:52:46.329Z,37.40
2019-05-18T09:55:17.028Z,36.03
2019-05-18T09:57:46.250Z,36.00
2019-05-18T10:00:15.525Z,33.13
2019-05-18T10:02:44.627Z,35.80
2019-05-18T10:05:13.449Z,33.70
2019-05-18T10:07:42.214Z,35.83
2019-05-18T10:10:12.234Z,34.33
2019-05-18T10:12:41.320Z,32.13
2019-05-18T10:15:10.800Z,33.30
2019-05-18T10:17:39.617Z,30.32
2019-05-18T10:20:09.432Z,30.12
2019-05-18T10:22:53.294Z,28.75
2019-05-18T10:25:09.898Z,31.02
2019-05-18T10:27:39.076Z,32.75
2019-05-18T10:30:11.326Z,32.13
2019-05-18T10:32:40.122Z,32.33
2019-05-18T10:35:09.080Z,31.73
2019-05-18T10:37:38.239Z,31.17
2019-05-18T10:40:09.216Z,31.40
2019-05-18T10:42:38.377Z,31.12
2019-05-18T10:45:08.464Z,30.05
2019-05-18T10:47:38.201Z,28.80
2019-05-18T10:50:08.707Z,31.65
2019-05-18T10:52:37.960Z,27.65
2019-05-18T10:55:08.129Z,27.27
2019-05-18T10:57:36.978Z,26.25
2019-05-18T11:00:08.031Z,28.17
2019-05-18T11:02:37.123Z,26.95
2019-05-18T11:05:08.576Z,23.10
2019-05-18T11:07:37.347Z,23.45
2019-05-18T11:10:08.482Z,21.73
2019-05-18T11:12:37.574Z,21.85
2019-05-18T11:15:08.249Z,24.25
2019-05-18T11:17:37.511Z,23.35
2019-05-18T11:20:08.580Z,21.57
2019-05-18T11:22:38.033Z,23.45
2019-05-18T11:25:08.281Z,23.20
2019-05-18T11:27:37.485Z,21.90
2019-05-18T11:30:09.285Z,19.80
2019-05-18T11:32:38.786Z,22.10
2019-05-18T11:35:08.632Z,19.30
2019-05-18T11:37:37.529Z,20.50
2019-05-18T11:40:08.259Z,20.12
2019-05-18T11:42:37.265Z,22.58
2019-05-18T11:45:11.243Z,21.35
2019-05-18T11:47:40.513Z,19.95
2019-05-18T11:50:09.989Z,19.15
2019-05-18T11:52:38.883Z,21.42
2019-05-18T11:55:08.415Z,21.07
2019-05-18T11:57:37.604Z,20.23
2019-05-18T12:00:08.647Z,19.80
2019-05-18T12:02:37.488Z,24.30
2019-05-18T12:05:08.195Z,18.42
2019-05-18T12:07:37.386Z,19.67
2019-05-18T12:10:09.351Z,19.40
2019-05-18T12:12:38.615Z,23.10
2019-05-18T12:15:09.785Z,20.00
2019-05-18T12:17:38.918Z,17.98
2019-05-18T12:20:08.927Z,18.25
2019-05-18T12:22:38.006Z,18.40
2019-05-18T12:25:07.884Z,17.30
2019-05-18T12:27:37.076Z,16.55
2019-05-18T12:30:08.982Z,17.40
2019-05-18T12:32:38.197Z,16.05
2019-05-18T12:35:09.341Z,15.35
2019-05-18T12:37:38.176Z,14.78
2019-05-18T12:40:08.304Z,15.83
2019-05-18T12:42:37.226Z,15.20
2019-05-18T12:45:09.106Z,13.70
2019-05-18T12:47:38.192Z,11.73
2019-05-18T12:50:08.513Z,12.70
2019-05-18T12:52:37.389Z,12.13
2019-05-18T12:55:06.845Z,12.65
2019-05-18T12:57:37.043Z,11.00
2019-05-18T13:00:09.133Z,11.48
2019-05-18T13:02:38.312Z,11.00
2019-05-18T13:05:08.335Z,10.38
2019-05-18T13:07:37.148Z,11.53
2019-05-18T13:10:09.423Z,11.05
2019-05-18T13:12:38.687Z,10.72
2019-05-18T13:15:12.702Z,11.00
2019-05-18T13:17:41.897Z,10.85
2019-05-18T13:20:12.576Z,11.12
2019-05-18T13:22:41.400Z,10.72
2019-05-18T13:25:12.876Z,11.20
2019-05-18T13:27:41.986Z,11.03
2019-05-18T13:30:13.272Z,9.88
2019-05-18T13:32:42.423Z,10.30
2019-05-18T13:35:13.159Z,9.63
2019-05-18T13:37:42.374Z,10.75
2019-05-18T13:40:13.303Z,9.13
2019-05-18T13:42:42.122Z,9.55
2019-05-18T13:45:11.981Z,9.40
2019-05-18T13:47:41.101Z,10.13
2019-05-18T13:50:12.049Z,10.32
2019-05-18T13:52:41.140Z,8.95
2019-05-18T13:55:10.300Z,10.25
2019-05-18T13:57:39.546Z,9.95
2019-05-18T14:00:09.465Z,9.75
2019-05-18T14:02:38.666Z,10.15
2019-05-18T14:05:08.068Z,10.23
2019-05-18T14:07:38.507Z,9.98
2019-05-18T14:10:08.470Z,10.50
2019-05-18T14:12:37.608Z,10.20
2019-05-18T14:15:06.982Z,8.25
2019-05-18T14:17:36.487Z,9.93
2019-05-18T14:20:06.027Z,10.98
2019-05-18T14:22:34.893Z,13.22
2019-05-18T14:25:18.353Z,9.73
2019-05-18T14:27:36.966Z,10.80
2019-05-18T14:30:07.064Z,10.78
2019-05-18T14:32:36.234Z,9.65
2019-05-18T14:35:07.365Z,13.08
2019-05-18T14:37:36.601Z,11.00
2019-05-18T14:40:09.079Z,12.45
2019-05-18T14:42:38.233Z,11.40
2019-05-18T14:45:09.006Z,12.28
2019-05-18T14:47:38.174Z,11.00
2019-05-18T14:50:08.691Z,11.33
2019-05-18T14:52:37.905Z,11.05
2019-05-18T14:55:07.652Z,10.53
2019-05-18T14:57:36.863Z,10.45
2019-05-18T15:00:10.632Z,10.63
2019-05-18T15:02:40.655Z,11.45
2019-05-18T15:05:10.786Z,13.80
2019-05-18T15:07:40.038Z,14.38
2019-05-18T15:10:09.748Z,17.65
2019-05-18T15:12:38.895Z,19.45
2019-05-18T15:15:09.298Z,14.47
2019-05-18T15:17:38.063Z,13.22
2019-05-18T15:20:09.111Z,14.83
2019-05-18T15:22:38.260Z,18.20
2019-05-18T15:25:07.856Z,17.77
2019-05-18T15:27:37.056Z,18.98
2019-05-18T15:30:09.932Z,18.80
2019-05-18T15:32:39.329Z,18.70
2019-05-18T15:35:10.379Z,18.23
2019-05-18T15:37:43.409Z,20.75
2019-05-18T15:40:10.602Z,16.95
2019-05-18T15:42:39.445Z,15.93
2019-05-18T15:45:09.169Z,15.43
2019-05-18T15:47:38.321Z,13.53
2019-05-18T15:50:08.562Z,15.08
2019-05-18T15:52:37.766Z,15.90
2019-05-18T15:55:08.502Z,16.50
2019-05-18T15:57:37.783Z,17.57
2019-05-18T16:00:10.255Z,17.57
2019-05-18T16:02:39.485Z,17.30
2019-05-18T16:05:09.369Z,16.10
2019-05-18T16:07:38.570Z,17.17
2019-05-18T16:10:08.542Z,18.50
2019-05-18T16:12:37.684Z,17.80
2019-05-18T16:15:08.905Z,17.30
2019-05-18T16:17:39.946Z,19.02
2019-05-18T16:20:10.424Z,18.85
2019-05-18T16:22:39.239Z,20.23
2019-05-18T16:25:09.001Z,21.27
2019-05-18T16:27:37.863Z,17.77
2019-05-18T16:30:08.296Z,14.75
2019-05-18T16:32:37.634Z,16.75
2019-05-18T16:35:10.314Z,19.40
2019-05-18T16:37:39.068Z,19.85
2019-05-18T16:40:08.619Z,18.87
2019-05-18T16:42:37.367Z,18.52
2019-05-18T16:45:08.099Z,18.05
2019-05-18T16:47:37.239Z,19.62
2019-05-18T16:50:07.876Z,18.42
2019-05-18T16:52:36.739Z,17.48
2019-05-18T16:55:09.339Z,18.65
2019-05-18T16:57:38.533Z,19.57
2019-05-18T17:00:16.202Z,19.17
2019-05-18T17:02:45.534Z,19.73
2019-05-18T17:05:15.658Z,19.15
2019-05-18T17:07:44.776Z,26.15
2019-05-18T17:10:15.593Z,23.52
2019-05-18T17:12:44.701Z,21.10
2019-05-18T17:15:13.819Z,21.15
2019-05-18T17:17:42.996Z,20.25
2019-05-18T17:20:13.628Z,18.65
2019-05-18T17:22:42.857Z,19.73
2019-05-18T17:25:12.237Z,16.07
2019-05-18T17:27:41.435Z,15.15
2019-05-18T17:30:10.838Z,16.42
2019-05-18T17:32:39.920Z,16.75
2019-05-18T17:35:10.163Z,17.23
2019-05-18T17:37:38.997Z,17.52
2019-05-18T17:40:08.560Z,17.40
2019-05-18T17:42:37.448Z,17.45
2019-05-18T17:45:08.288Z,17.50
2019-05-18T17:47:37.389Z,16.48
2019-05-18T17:50:10.063Z,17.05
2019-05-18T17:52:38.847Z,19.25
2019-05-18T17:55:08.913Z,21.48
2019-05-18T17:57:38.087Z,21.80
2019-05-18T18:00:11.982Z,22.95
2019-05-18T18:02:41.484Z,25.85
2019-05-18T18:05:10.719Z,27.02
2019-05-18T18:07:39.886Z,25.50
2019-05-18T18:10:09.233Z,36.03
2019-05-18T18:12:38.516Z,24.63
2019-05-18T18:15:08.430Z,26.02
2019-05-18T18:17:37.607Z,27.37
2019-05-18T18:20:07.321Z,33.53
2019-05-18T18:22:40.638Z,68.67
2019-05-18T18:25:10.559Z,33.23
2019-05-18T18:27:39.358Z,30.50
2019-05-18T18:30:13.292Z,31.52
2019-05-18T18:32:42.102Z,29.55
2019-05-18T18:35:11.905Z,31.05
2019-05-18T18:37:41.148Z,32.38
2019-05-18T18:40:10.645Z,31.05
2019-05-18T18:42:39.472Z,36.63
2019-05-18T18:45:09.056Z,38.88
2019-05-18T18:47:38.135Z,33.28
2019-05-18T18:50:08.060Z,38.58
2019-05-18T18:52:37.191Z,34.55
2019-05-18T18:55:08.092Z,36.83
2019-05-18T18:57:41.367Z,39.90
2019-05-18T19:00:09.052Z,43.45
2019-05-18T19:02:38.178Z,43.73
2019-05-18T19:05:07.851Z,44.98
2019-05-18T19:07:36.643Z,52.00
2019-05-18T19:10:13.532Z,48.68
2019-05-18T19:12:42.842Z,46.00
2019-05-18T19:15:12.756Z,45.65
2019-05-18T19:17:41.692Z,47.73
2019-05-18T19:20:10.949Z,47.50
2019-05-18T19:22:40.667Z,47.85
2019-05-18T19:25:10.167Z,48.92
2019-05-18T19:27:39.328Z,48.83
2019-05-18T19:30:10.212Z,48.92
2019-05-18T19:32:39.521Z,49.88
2019-05-18T19:35:09.129Z,49.53
2019-05-18T19:37:38.062Z,48.15
2019-05-18T19:40:08.130Z,50.52
2019-05-18T19:42:37.419Z,47.93
2019-05-18T19:45:08.969Z,49.88
2019-05-18T19:47:37.809Z,50.35
2019-05-18T19:50:07.672Z,51.45
2019-05-18T19:52:36.946Z,50.98
2019-05-18T19:55:07.186Z,49.15
2019-05-18T19:57:36.375Z,49.40
2019-05-18T20:00:07.578Z,49.73
2019-05-18T20:02:36.771Z,54.13
2019-05-18T20:05:09.774Z,51.80
2019-05-18T20:07:39.770Z,50.70
2019-05-18T20:10:10.016Z,50.23
2019-05-18T20:12:40.830Z,49.13
2019-05-18T20:15:10.146Z,51.00
2019-05-18T20:17:39.338Z,57.83
2019-05-18T20:20:09.482Z,84.28
2019-05-18T20:22:38.668Z,73.00
2019-05-18T20:25:08.167Z,76.55
2019-05-18T20:27:37.256Z,162.60
2019-05-18T20:30:08.089Z,55.65
2019-05-18T20:32:36.954Z,62.38
2019-05-18T20:35:05.837Z,60.30
2019-05-18T20:37:35.079Z,72.10
2019-05-18T20:40:05.176Z,68.02
2019-05-18T20:42:37.328Z,55.05
2019-05-18T20:45:05.664Z,54.80
2019-05-18T20:47:34.883Z,57.85
2019-05-18T20:50:05.888Z,60.17
2019-05-18T20:52:34.873Z,56.48
2019-05-18T20:55:04.195Z,72.72
2019-05-18T20:57:33.489Z,63.83
2019-05-18T21:00:02.562Z,62.40
2019-05-18T21:02:31.883Z,57.95
2019-05-18T21:05:01.325Z,52.35
2019-05-18T21:07:30.503Z,53.92
2019-05-18T21:09:59.718Z,75.87
2019-05-18T21:12:28.892Z,66.60
2019-05-18T21:14:58.109Z,67.22
2019-05-18T21:17:27.301Z,58.10
2019-05-18T21:19:56.600Z,61.73
2019-05-18T21:22:25.805Z,54.67
2019-05-18T21:24:55.004Z,57.85
2019-05-18T21:27:23.802Z,56.98
2019-05-18T21:29:52.886Z,65.47
2019-05-18T21:32:21.740Z,61.42
2019-05-18T21:34:50.518Z,66.45
2019-05-18T21:37:19.380Z,57.35
2019-05-18T21:39:48.653Z,77.85
2019-05-18T21:42:19.804Z,62.20
2019-05-18T21:44:48.610Z,61.05
2019-05-18T21:47:17.906Z,73.85
2019-05-18T21:49:47.200Z,85.22
2019-05-18T21:52:16.436Z,66.50
2019-05-18T21:54:45.287Z,72.45
2019-05-18T21:57:14.614Z,66.75
2019-05-18T21:59:43.805Z,72.42
2019-05-18T22:02:12.987Z,62.93
2019-05-18T22:04:42.187Z,59.40
2019-05-18T22:07:11.384Z,58.73
2019-05-18T22:09:40.587Z,66.87
2019-05-18T22:12:09.454Z,65.00
2019-05-18T22:14:38.581Z,73.50
2019-05-18T22:17:07.771Z,70.78
2019-05-18T22:19:36.971Z,61.95
2019-05-18T22:22:05.741Z,60.43
2019-05-18T22:24:34.959Z,62.48
2019-05-18T22:27:03.801Z,59.73
2019-05-18T22:29:34.395Z,58.87
2019-05-18T22:32:03.593Z,59.77
2019-05-18T22:34:32.692Z,60.35
2019-05-18T22:37:03.326Z,56.77
2019-05-18T22:39:32.523Z,63.48
2019-05-18T22:42:01.615Z,69.15
2019-05-18T22:44:30.817Z,61.08
2019-05-18T22:46:59.909Z,62.20
2019-05-18T22:49:29.113Z,59.48
2019-05-18T22:51:57.952Z,63.02
2019-05-18T22:54:27.096Z,63.20
2019-05-18T22:56:55.904Z,65.40
2019-05-18T22:59:24.751Z,84.00
2019-05-18T23:01:53.635Z,63.75
2019-05-18T23:04:22.753Z,62.33
2019-05-18T23:06:51.969Z,63.87
2019-05-18T23:09:21.223Z,62.00
2019-05-18T23:11:50.371Z,60.92
2019-05-18T23:14:19.676Z,61.53
2019-05-18T23:16:48.868Z,65.30
2019-05-18T23:19:17.989Z,77.30
2019-05-18T23:21:47.170Z,65.60
2019-05-18T23:24:15.995Z,63.30
2019-05-18T23:26:44.849Z,62.53
2019-05-18T23:29:13.964Z,65.50
2019-05-18T23:31:43.324Z,79.53
2019-05-18T23:34:12.147Z,65.22
2019-05-18T23:36:41.544Z,69.77
2019-05-18T23:39:10.555Z,64.45
2019-05-18T23:41:39.644Z,67.03
2019-05-18T23:44:11.769Z,63.92
2019-05-18T23:46:41.330Z,64.42
2019-05-18T23:49:11.290Z,64.03
2019-05-18T23:51:40.812Z,62.20
2019-05-18T23:54:10.156Z,69.27
2019-05-18T23:56:39.343Z,65.55
2019-05-18T23:59:08.071Z,64.90
